createdAt,value
2023-02-26T00:01:14.980Z,13.20
2023-02-26T00:04:02.303Z,13.20
2023-02-26T00:06:57.893Z,13.20
2023-02-26T00:09:44.700Z,13.20
2023-02-26T00:12:30.726Z,13.20
2023-02-26T00:15:18.296Z,13.20
2023-02-26T00:18:03.963Z,13.20
2023-02-26T00:20:49.807Z,13.10
2023-02-26T00:23:35.320Z,13.10
2023-02-26T00:26:21.056Z,13.10
2023-02-26T00:29:06.473Z,13.10
2023-02-26T00:31:52.360Z,13.00
2023-02-26T00:34:38.084Z,13.00
2023-02-26T00:37:24.358Z,13.00
2023-02-26T00:40:15.980Z,13.00
2023-02-26T00:43:03.204Z,13.00
2023-02-26T00:45:55.101Z,13.00
2023-02-26T00:48:59.699Z,13.00
2023-02-26T00:51:45.243Z,12.90
2023-02-26T00:54:31.103Z,12.90
2023-02-26T00:57:16.296Z,12.90
2023-02-26T01:00:02.447Z,12.90
2023-02-26T01:02:48.179Z,12.90
2023-02-26T01:05:33.754Z,12.90
2023-02-26T01:08:39.870Z,12.90
2023-02-26T01:11:25.512Z,12.90
2023-02-26T01:14:10.976Z,12.90
2023-02-26T01:17:03.657Z,12.90
2023-02-26T01:19:55.929Z,12.90
2023-02-26T01:22:41.719Z,12.80
2023-02-26T01:25:30.403Z,12.80
2023-02-26T01:28:16.336Z,12.80
2023-02-26T01:31:05.318Z,12.80
2023-02-26T01:33:56.414Z,12.80
2023-02-26T01:36:44.514Z,12.80
2023-02-26T01:39:59.319Z,12.80
2023-02-26T01:42:46.553Z,12.80
2023-02-26T01:45:35.014Z,12.80
2023-02-26T01:48:50.170Z,12.80
2023-02-26T01:51:55.518Z,12.80
2023-02-26T01:54:40.913Z,12.80
2023-02-26T01:57:26.763Z,12.80
2023-02-26T02:00:12.513Z,12.70
2023-02-26T02:02:58.028Z,12.80
2023-02-26T02:06:03.565Z,12.70
2023-02-26T02:08:49.347Z,12.70
2023-02-26T02:11:35.718Z,12.70
2023-02-26T02:14:26.953Z,12.70
2023-02-26T02:17:25.877Z,12.70
2023-02-26T02:20:29.948Z,12.70
2023-02-26T02:23:15.650Z,12.70
2023-02-26T02:26:07.448Z,12.60
2023-02-26T02:29:03.210Z,12.60
2023-02-26T02:31:52.784Z,12.50
2023-02-26T02:34:41.337Z,12.40
2023-02-26T02:37:29.812Z,12.40
2023-02-26T02:40:24.488Z,12.50
2023-02-26T02:43:13.104Z,12.50
2023-02-26T02:46:06.228Z,12.40
2023-02-26T02:49:18.223Z,12.30
2023-02-26T02:52:07.793Z,12.30
2023-02-26T02:55:14.020Z,12.30
2023-02-26T02:58:04.979Z,12.40
2023-02-26T03:00:53.430Z,12.30
2023-02-26T03:03:50.861Z,12.20
2023-02-26T03:06:36.917Z,12.20
2023-02-26T03:09:22.279Z,12.20
2023-02-26T03:12:08.332Z,12.10
2023-02-26T03:14:53.978Z,12.20
2023-02-26T03:17:45.283Z,12.30
2023-02-26T03:20:46.378Z,12.30
2023-02-26T03:23:34.023Z,12.20
2023-02-26T03:26:27.724Z,12.20
2023-02-26T03:29:24.734Z,12.20
2023-02-26T03:32:14.334Z,12.20
2023-02-26T03:35:00.484Z,12.30
2023-02-26T03:37:50.524Z,12.40
2023-02-26T03:40:38.819Z,12.50
2023-02-26T03:43:33.034Z,12.30
2023-02-26T03:46:23.774Z,12.30
2023-02-26T03:49:12.650Z,12.20
2023-02-26T03:52:00.739Z,12.00
2023-02-26T03:55:13.250Z,11.90
2023-02-26T03:58:19.381Z,11.70
2023-02-26T04:01:25.106Z,11.40
2023-02-26T04:04:15.153Z,11.20
2023-02-26T04:07:01.785Z,10.90
2023-02-26T04:09:49.123Z,11.00
2023-02-26T04:12:34.711Z,11.00
2023-02-26T04:15:22.019Z,10.70
2023-02-26T04:18:08.088Z,9.30
2023-02-26T04:20:53.855Z,8.70
2023-02-26T04:23:39.461Z,8.40
2023-02-26T04:26:25.508Z,8.30
2023-02-26T04:29:11.612Z,8.00
2023-02-26T04:31:57.618Z,7.90
2023-02-26T04:34:43.576Z,7.90
2023-02-26T04:37:29.175Z,7.70
2023-02-26T04:40:14.451Z,7.70
2023-02-26T04:43:01.233Z,7.70
2023-02-26T04:45:51.198Z,7.70
2023-02-26T04:48:38.186Z,7.80
2023-02-26T04:51:23.910Z,7.70
2023-02-26T04:54:10.452Z,7.50
2023-02-26T04:56:56.382Z,7.50
2023-02-26T04:59:42.186Z,7.30
2023-02-26T05:02:28.306Z,7.30
2023-02-26T05:05:14.171Z,7.30
2023-02-26T05:07:59.858Z,7.30
2023-02-26T05:10:45.570Z,7.30
2023-02-26T05:13:30.965Z,7.30
2023-02-26T05:16:16.871Z,7.20
2023-02-26T05:19:02.473Z,7.20
2023-02-26T05:21:49.338Z,7.20
2023-02-26T05:24:35.212Z,7.30
2023-02-26T05:27:20.627Z,7.40
2023-02-26T05:30:07.361Z,7.90
2023-02-26T05:32:54.815Z,7.30
2023-02-26T05:35:40.285Z,7.20
2023-02-26T05:38:26.059Z,7.10
2023-02-26T05:41:11.442Z,7.10
2023-02-26T05:43:56.622Z,7.00
2023-02-26T05:46:42.560Z,6.90
2023-02-26T05:49:28.417Z,7.00
2023-02-26T05:52:14.120Z,6.80
2023-02-26T05:54:59.597Z,6.90
2023-02-26T05:57:45.228Z,6.80
2023-02-26T06:00:31.103Z,6.70
2023-02-26T06:03:16.789Z,6.50
2023-02-26T06:06:02.685Z,6.60
2023-02-26T06:08:48.266Z,6.60
2023-02-26T06:11:34.278Z,6.60
2023-02-26T06:14:20.534Z,6.50
2023-02-26T06:17:06.760Z,6.40
2023-02-26T06:19:52.512Z,6.50
2023-02-26T06:22:38.704Z,6.30
2023-02-26T06:25:24.436Z,6.40
2023-02-26T06:28:10.235Z,6.40
2023-02-26T06:30:55.699Z,6.30
2023-02-26T06:33:41.434Z,6.30
2023-02-26T06:36:27.394Z,6.40
2023-02-26T06:39:12.967Z,6.30
2023-02-26T06:41:58.988Z,6.30
2023-02-26T06:44:44.704Z,6.30
2023-02-26T06:47:29.888Z,6.30
2023-02-26T06:50:16.258Z,6.30
2023-02-26T06:53:02.192Z,6.20
2023-02-26T06:55:51.773Z,6.20
2023-02-26T06:58:37.164Z,6.20
2023-02-26T07:01:22.591Z,6.10
2023-02-26T07:04:08.402Z,5.90
2023-02-26T07:06:54.228Z,5.90
2023-02-26T07:09:39.972Z,6.00
2023-02-26T07:12:25.354Z,6.00
2023-02-26T07:15:10.609Z,6.10
2023-02-26T07:17:56.502Z,6.00
2023-02-26T07:20:42.969Z,6.00
2023-02-26T07:23:28.374Z,5.90
2023-02-26T07:26:14.137Z,5.90
2023-02-26T07:28:59.759Z,6.10
2023-02-26T07:31:45.733Z,6.00
2023-02-26T07:34:31.987Z,6.00
2023-02-26T07:37:17.431Z,6.20
2023-02-26T07:40:03.752Z,6.20
2023-02-26T07:42:49.073Z,6.30
2023-02-26T07:45:34.722Z,6.20
2023-02-26T07:48:20.803Z,6.20
2023-02-26T07:51:07.945Z,6.30
2023-02-26T07:53:53.306Z,6.30
2023-02-26T07:56:39.804Z,6.30
2023-02-26T07:59:25.200Z,6.40
2023-02-26T08:02:11.991Z,6.30
2023-02-26T08:04:57.894Z,6.30
2023-02-26T08:07:43.262Z,6.30
2023-02-26T08:10:29.924Z,6.20
2023-02-26T08:13:15.363Z,6.20
2023-02-26T08:16:01.177Z,6.20
2023-02-26T08:18:47.004Z,6.20
2023-02-26T08:21:32.684Z,6.20
2023-02-26T08:24:18.458Z,6.10
2023-02-26T08:27:03.794Z,6.00
2023-02-26T08:29:50.372Z,6.00
2023-02-26T08:32:36.241Z,5.90
2023-02-26T08:35:21.982Z,5.80
2023-02-26T08:38:08.090Z,6.00
2023-02-26T08:40:54.003Z,6.00
2023-02-26T08:43:39.725Z,6.40
2023-02-26T08:46:26.145Z,5.90
2023-02-26T08:49:11.586Z,5.90
2023-02-26T08:51:57.258Z,5.70
2023-02-26T08:54:43.012Z,5.70
2023-02-26T08:57:28.748Z,5.80
2023-02-26T09:00:16.627Z,5.70
2023-02-26T09:03:02.532Z,5.80
2023-02-26T09:05:48.434Z,5.70
2023-02-26T09:08:34.132Z,5.80
2023-02-26T09:11:19.776Z,5.80
2023-02-26T09:14:05.384Z,5.70
2023-02-26T09:16:52.445Z,5.80
2023-02-26T09:19:38.133Z,5.80
2023-02-26T09:22:23.578Z,5.80
2023-02-26T09:25:09.349Z,5.70
2023-02-26T09:27:55.007Z,5.70
2023-02-26T09:30:41.001Z,5.70
2023-02-26T09:33:26.785Z,5.80
2023-02-26T09:36:12.425Z,5.70
2023-02-26T09:38:58.286Z,5.70
2023-02-26T09:41:47.121Z,5.60
2023-02-26T09:44:33.281Z,5.60
2023-02-26T09:47:21.524Z,5.50
2023-02-26T09:50:22.359Z,5.40
2023-02-26T09:53:19.946Z,5.50
2023-02-26T09:56:07.288Z,5.50
2023-02-26T09:59:01.753Z,5.40
2023-02-26T10:02:00.419Z,5.50
2023-02-26T10:04:49.286Z,5.40
2023-02-26T10:07:37.794Z,5.50
2023-02-26T10:10:35.591Z,5.50
2023-02-26T10:13:56.064Z,5.50
2023-02-26T10:16:46.262Z,5.60
2023-02-26T10:19:38.495Z,5.60
2023-02-26T10:22:40.058Z,5.60
2023-02-26T10:25:46.961Z,5.70
2023-02-26T10:28:36.365Z,5.60
2023-02-26T10:31:38.842Z,5.60
2023-02-26T10:34:42.076Z,5.60
2023-02-26T10:37:44.034Z,5.60
2023-02-26T10:40:32.942Z,5.70
2023-02-26T10:43:21.693Z,5.60
2023-02-26T10:46:07.391Z,5.60
2023-02-26T10:48:59.810Z,5.60
2023-02-26T10:51:47.021Z,5.70
2023-02-26T10:54:37.409Z,5.70
2023-02-26T10:57:25.275Z,5.70
2023-02-26T11:00:16.727Z,5.80
2023-02-26T11:03:03.288Z,5.70
2023-02-26T11:05:49.072Z,5.60
2023-02-26T11:08:37.057Z,5.60
2023-02-26T11:11:37.415Z,5.80
2023-02-26T11:14:26.146Z,5.80
2023-02-26T11:17:20.719Z,5.70
2023-02-26T11:20:19.261Z,5.80
2023-02-26T11:23:06.420Z,5.80
2023-02-26T11:26:02.406Z,5.80
2023-02-26T11:28:49.307Z,5.90
2023-02-26T11:31:34.598Z,5.90
2023-02-26T11:34:22.389Z,6.10
2023-02-26T11:37:08.082Z,6.20
2023-02-26T11:39:59.234Z,6.30
2023-02-26T11:43:04.930Z,6.30
2023-02-26T11:46:09.737Z,6.30
2023-02-26T11:48:56.541Z,6.20
2023-02-26T11:51:46.661Z,6.30
2023-02-26T11:54:34.382Z,6.30
2023-02-26T11:57:23.903Z,6.30
2023-02-26T12:00:20.562Z,6.30
2023-02-26T12:03:09.048Z,6.40
2023-02-26T12:05:55.113Z,6.30
2023-02-26T12:08:40.731Z,6.30
2023-02-26T12:11:43.320Z,6.30
2023-02-26T12:14:31.789Z,6.20
2023-02-26T12:17:17.714Z,6.10
2023-02-26T12:20:07.781Z,6.10
2023-02-26T12:22:56.162Z,6.10
2023-02-26T12:26:01.760Z,6.10
2023-02-26T12:28:50.149Z,6.20
2023-02-26T12:31:56.306Z,6.10
2023-02-26T12:35:00.472Z,6.20
2023-02-26T12:37:59.910Z,6.30
2023-02-26T12:40:51.833Z,6.40
2023-02-26T12:43:50.921Z,6.30
2023-02-26T12:46:44.719Z,6.40
2023-02-26T12:49:37.142Z,6.40
2023-02-26T12:52:25.838Z,6.40
2023-02-26T12:55:30.507Z,6.30
2023-02-26T12:58:25.513Z,6.20
2023-02-26T13:01:17.454Z,6.20
2023-02-26T13:04:03.210Z,6.20
2023-02-26T13:06:52.098Z,6.30
2023-02-26T13:09:37.470Z,6.30
2023-02-26T13:12:31.520Z,6.20
2023-02-26T13:15:16.900Z,6.30
2023-02-26T13:18:21.283Z,6.30
2023-02-26T13:21:15.122Z,6.40
2023-02-26T13:24:13.239Z,6.60
2023-02-26T13:27:00.123Z,6.60
2023-02-26T13:29:48.414Z,6.60
2023-02-26T13:32:35.284Z,6.70
2023-02-26T13:35:21.375Z,6.80
2023-02-26T13:38:27.581Z,6.80
2023-02-26T13:41:13.096Z,6.80
2023-02-26T13:43:58.923Z,6.70
2023-02-26T13:47:03.369Z,6.70
2023-02-26T13:50:05.396Z,6.70
2023-02-26T13:52:53.045Z,6.70
2023-02-26T13:55:48.450Z,6.70
2023-02-26T13:58:35.444Z,6.70
2023-02-26T14:01:40.031Z,6.70
2023-02-26T14:04:28.191Z,6.60
2023-02-26T14:07:14.716Z,6.40
2023-02-26T14:10:01.550Z,6.40
2023-02-26T14:12:47.137Z,6.50
2023-02-26T14:15:48.411Z,6.60
2023-02-26T14:18:39.942Z,6.40
2023-02-26T14:21:34.783Z,6.30
2023-02-26T14:24:31.324Z,6.30
2023-02-26T14:27:17.003Z,6.30
2023-02-26T14:30:08.979Z,6.40
2023-02-26T14:33:06.439Z,6.30
2023-02-26T14:35:54.687Z,6.20
2023-02-26T14:38:42.632Z,6.20
2023-02-26T14:41:41.215Z,6.10
2023-02-26T14:44:28.865Z,6.20
2023-02-26T14:47:14.450Z,6.20
2023-02-26T14:50:00.589Z,6.20
2023-02-26T14:52:55.559Z,6.20
2023-02-26T14:55:45.485Z,6.20
2023-02-26T14:58:43.641Z,6.30
2023-02-26T15:01:38.886Z,6.40
2023-02-26T15:04:43.245Z,6.30
2023-02-26T15:07:44.194Z,6.20
2023-02-26T15:10:45.333Z,6.20
2023-02-26T15:13:34.127Z,6.20
2023-02-26T15:16:19.726Z,6.30
2023-02-26T15:19:26.242Z,6.30
2023-02-26T15:22:22.555Z,6.30
2023-02-26T15:25:15.235Z,6.30
2023-02-26T15:28:01.918Z,6.30
2023-02-26T15:30:48.775Z,6.30
2023-02-26T15:33:34.316Z,6.20
2023-02-26T15:36:21.959Z,6.20
2023-02-26T15:39:09.263Z,6.20
2023-02-26T15:41:55.317Z,6.20
2023-02-26T15:44:55.239Z,6.20
2023-02-26T15:47:42.021Z,6.20
2023-02-26T15:50:29.221Z,6.20
2023-02-26T15:53:29.122Z,6.30
2023-02-26T15:56:19.662Z,6.30
2023-02-26T15:59:08.458Z,6.20
2023-02-26T16:01:55.266Z,6.30
2023-02-26T16:04:41.814Z,6.20
2023-02-26T16:07:27.689Z,6.30
2023-02-26T16:10:18.447Z,6.20
2023-02-26T16:13:04.921Z,6.10
2023-02-26T16:15:50.636Z,6.10
2023-02-26T16:18:36.773Z,6.10
2023-02-26T16:21:34.280Z,6.10
2023-02-26T16:24:22.165Z,6.20
2023-02-26T16:27:08.881Z,6.20
2023-02-26T16:29:55.856Z,6.20
2023-02-26T16:32:41.550Z,6.20
2023-02-26T16:35:31.307Z,6.20
2023-02-26T16:38:21.500Z,6.20
2023-02-26T16:41:09.858Z,6.00
2023-02-26T16:43:57.742Z,5.90
2023-02-26T16:46:44.758Z,5.90
2023-02-26T16:49:35.063Z,5.90
2023-02-26T16:52:22.591Z,5.80
2023-02-26T16:55:10.744Z,5.80
2023-02-26T16:57:57.084Z,5.80
2023-02-26T17:00:46.693Z,5.80
2023-02-26T17:03:32.682Z,5.80
2023-02-26T17:06:19.671Z,5.80
2023-02-26T17:09:09.957Z,5.80
2023-02-26T17:12:03.640Z,5.80
2023-02-26T17:14:57.103Z,5.70
2023-02-26T17:17:43.617Z,5.70
2023-02-26T17:20:30.060Z,5.60
2023-02-26T17:23:17.277Z,5.70
2023-02-26T17:26:04.331Z,5.70
2023-02-26T17:28:49.931Z,5.70
2023-02-26T17:31:35.529Z,5.70
2023-02-26T17:34:21.684Z,5.70
2023-02-26T17:37:09.599Z,5.70
2023-02-26T17:39:55.332Z,5.70
2023-02-26T17:42:40.919Z,5.80
2023-02-26T17:45:26.652Z,5.90
2023-02-26T17:48:13.594Z,5.80
2023-02-26T17:50:59.292Z,5.70
2023-02-26T17:53:46.766Z,5.60
2023-02-26T17:56:33.283Z,5.70
2023-02-26T17:59:18.916Z,5.60
2023-02-26T18:02:14.457Z,5.70
2023-02-26T18:04:59.950Z,5.80
2023-02-26T18:07:46.194Z,5.70
2023-02-26T18:10:32.151Z,5.60
2023-02-26T18:13:17.755Z,5.50
2023-02-26T18:16:03.956Z,5.50
2023-02-26T18:18:49.930Z,5.50
2023-02-26T18:21:35.675Z,5.40
2023-02-26T18:24:21.418Z,5.40
2023-02-26T18:27:09.974Z,5.40
2023-02-26T18:29:55.827Z,5.40
2023-02-26T18:32:41.512Z,5.40
2023-02-26T18:35:29.087Z,5.40
2023-02-26T18:38:15.500Z,5.30
2023-02-26T18:41:02.234Z,5.40
2023-02-26T18:43:47.895Z,5.30
2023-02-26T18:46:35.030Z,5.30
2023-02-26T18:49:21.123Z,5.20
2023-02-26T18:52:06.939Z,5.10
2023-02-26T18:54:52.462Z,5.00
2023-02-26T18:57:39.656Z,4.90
2023-02-26T19:00:25.376Z,4.90
2023-02-26T19:03:11.257Z,5.00
2023-02-26T19:05:57.908Z,5.10
2023-02-26T19:08:43.721Z,5.00
2023-02-26T19:11:29.275Z,5.00
2023-02-26T19:14:15.234Z,5.00
2023-02-26T19:17:01.190Z,5.00
2023-02-26T19:19:46.933Z,5.00
2023-02-26T19:22:32.732Z,5.00
2023-02-26T19:25:23.855Z,5.10
2023-02-26T19:28:09.564Z,5.20
2023-02-26T19:30:55.422Z,5.20
2023-02-26T19:33:40.838Z,5.10
2023-02-26T19:36:27.730Z,5.20
2023-02-26T19:39:14.292Z,5.20
2023-02-26T19:42:00.223Z,5.10
2023-02-26T19:44:45.696Z,5.10
2023-02-26T19:47:30.958Z,5.00
2023-02-26T19:50:19.098Z,5.00
2023-02-26T19:53:04.535Z,5.00
2023-02-26T19:55:50.802Z,5.00
2023-02-26T19:58:36.117Z,5.10
2023-02-26T20:01:22.047Z,5.10
2023-02-26T20:04:07.692Z,5.10
2023-02-26T20:06:53.640Z,5.10
2023-02-26T20:09:39.335Z,5.10
2023-02-26T20:12:24.784Z,5.10
2023-02-26T20:15:10.821Z,5.10
2023-02-26T20:17:56.109Z,5.10
2023-02-26T20:20:42.832Z,5.10
2023-02-26T20:23:28.622Z,5.10
2023-02-26T20:26:15.052Z,5.10
2023-02-26T20:29:00.798Z,5.10
2023-02-26T20:31:49.330Z,5.10
2023-02-26T20:34:35.168Z,5.10
2023-02-26T20:37:20.843Z,5.00
2023-02-26T20:40:07.356Z,5.00
2023-02-26T20:42:52.705Z,5.00
2023-02-26T20:45:39.047Z,5.00
2023-02-26T20:48:24.831Z,5.00
2023-02-26T20:51:11.958Z,5.10
2023-02-26T20:53:57.602Z,5.10
2023-02-26T20:56:43.815Z,5.10
2023-02-26T20:59:29.262Z,5.10
2023-02-26T21:02:15.689Z,5.10
2023-02-26T21:05:01.216Z,5.10
2023-02-26T21:07:46.685Z,5.10
2023-02-26T21:10:32.764Z,5.10
2023-02-26T21:13:18.888Z,5.10
2023-02-26T21:16:04.595Z,5.20
2023-02-26T21:18:51.736Z,5.20
2023-02-26T21:21:37.611Z,5.20
2023-02-26T21:24:23.307Z,5.10
2023-02-26T21:27:08.734Z,5.20
2023-02-26T21:29:54.570Z,5.20
2023-02-26T21:32:40.714Z,5.20
2023-02-26T21:35:26.388Z,5.20
2023-02-26T21:38:12.325Z,5.10
2023-02-26T21:40:58.078Z,5.10
2023-02-26T21:43:43.880Z,5.00
2023-02-26T21:46:29.610Z,5.00
2023-02-26T21:49:15.274Z,5.00
2023-02-26T21:52:02.420Z,5.10
2023-02-26T21:54:47.761Z,5.10
2023-02-26T21:57:33.498Z,5.00
2023-02-26T22:00:19.528Z,5.20
2023-02-26T22:03:05.246Z,5.00
2023-02-26T22:05:52.248Z,5.00
2023-02-26T22:08:37.843Z,5.10
2023-02-26T22:11:23.038Z,5.20
2023-02-26T22:14:08.433Z,5.10
2023-02-26T22:16:54.239Z,5.10
2023-02-26T22:19:40.036Z,5.10
2023-02-26T22:22:26.895Z,5.10
2023-02-26T22:25:12.873Z,5.10
2023-02-26T22:27:58.631Z,5.20
2023-02-26T22:30:44.376Z,5.20
2023-02-26T22:33:30.011Z,5.20
2023-02-26T22:36:15.602Z,5.30
2023-02-26T22:39:01.229Z,5.40
2023-02-26T22:41:47.338Z,5.40
2023-02-26T22:44:33.210Z,5.40
2023-02-26T22:47:18.679Z,5.40
2023-02-26T22:50:04.763Z,5.40
2023-02-26T22:52:50.128Z,5.40
2023-02-26T22:55:35.864Z,5.50
2023-02-26T22:58:21.217Z,5.50
2023-02-26T23:01:07.617Z,5.60
2023-02-26T23:03:53.221Z,5.50
2023-02-26T23:06:38.543Z,5.50
2023-02-26T23:09:23.976Z,5.50
2023-02-26T23:12:10.044Z,5.50
2023-02-26T23:14:55.419Z,5.40
2023-02-26T23:17:40.914Z,5.50
2023-02-26T23:20:26.380Z,5.50
2023-02-26T23:23:12.156Z,5.50
2023-02-26T23:25:57.803Z,5.50
2023-02-26T23:28:43.593Z,5.50
2023-02-26T23:31:29.947Z,5.50
2023-02-26T23:34:15.948Z,5.50
2023-02-26T23:37:01.745Z,5.60
2023-02-26T23:39:48.970Z,5.50
2023-02-26T23:42:34.582Z,5.60
2023-02-26T23:45:20.323Z,5.50
2023-02-26T23:48:06.031Z,5.50
2023-02-26T23:50:51.882Z,5.40
2023-02-26T23:53:37.461Z,5.40
2023-02-26T23:56:23.047Z,5.40
2023-02-26T23:59:08.819Z,5.30
